Time;durP1;ratioP1;P1;durP2;ratioP2;P2;SDS_P1;SDS_P2;PMS_P1;PMS_P2;Temp;Humidity;BMP_temperature;BMP_pressure;BME280_temperature;BME280_humidity;BME280_pressure;Samples;Min_cycle;Max_cycle;Signal;HPM_P1;HPM_P2
2023/06/09 00:00:41;;;;;;;2.83;2.50;;;22.50;96.70;;;;;;4982440;28;20525;-68
2023/06/09 00:03:09;;;;;;;3.58;3.22;;;22.40;96.70;;;;;;4983930;28;20044;-69
2023/06/09 00:05:40;;;;;;;4.22;2.33;;;22.30;96.70;;;;;;4984514;28;20042;-68
2023/06/09 00:08:09;;;;;;;4.75;3.00;;;22.30;96.70;;;;;;4984164;28;20046;-68
2023/06/09 00:10:37;;;;;;;3.75;3.45;;;22.30;96.70;;;;;;4982026;28;20767;-68
2023/06/09 00:13:05;;;;;;;3.70;3.33;;;22.10;96.70;;;;;;4981666;28;20141;-68
2023/06/09 00:15:33;;;;;;;3.97;3.10;;;21.80;96.70;;;;;;4979700;28;20732;-69
2023/06/09 00:18:02;;;;;;;3.58;2.90;;;21.60;96.70;;;;;;4977482;28;20082;-69
2023/06/09 00:20:34;;;;;;;3.38;2.42;;;21.70;96.70;;;;;;4962577;28;20053;-68
2023/06/09 00:23:02;;;;;;;4.55;2.70;;;22.00;96.70;;;;;;4962447;28;20050;-69
2023/06/09 00:25:32;;;;;;;4.20;3.03;;;22.00;96.70;;;;;;4962622;28;20659;-68
2023/06/09 00:28:00;;;;;;;3.63;3.15;;;22.10;96.70;;;;;;4962438;28;20050;-68
2023/06/09 00:30:28;;;;;;;3.28;2.60;;;22.00;96.70;;;;;;4960581;28;20039;-69
2023/06/09 00:33:06;;;;;;;4.20;2.80;;;21.90;96.70;;;;;;4963675;28;20078;-68
2023/06/09 00:35:34;;;;;;;3.20;2.90;;;21.90;96.70;;;;;;4976463;28;20692;-68
2023/06/09 00:38:02;;;;;;;4.47;2.95;;;21.70;96.70;;;;;;4962626;28;20066;-68
2023/06/09 00:40:32;;;;;;;3.53;2.90;;;21.60;96.70;;;;;;4963709;28;20073;-69
2023/06/09 00:43:00;;;;;;;5.13;2.63;;;21.50;96.70;;;;;;4978802;28;20124;-68
2023/06/09 00:45:28;;;;;;;4.00;2.60;;;21.50;96.70;;;;;;4962511;28;20086;-69
2023/06/09 00:47:56;;;;;;;2.83;2.63;;;21.50;96.70;;;;;;4978358;28;20043;-69
2023/06/09 00:50:24;;;;;;;3.60;2.92;;;21.60;96.70;;;;;;4963055;28;20046;-69
2023/06/09 00:52:53;;;;;;;3.00;2.70;;;21.50;96.70;;;;;;4976537;28;20042;-69
2023/06/09 00:55:22;;;;;;;3.85;2.78;;;21.50;96.70;;;;;;4977806;28;20043;-68
2023/06/09 00:57:55;;;;;;;3.15;2.30;;;21.40;96.70;;;;;;4962423;28;20058;-68
2023/06/09 01:00:27;;;;;;;4.18;2.30;;;21.50;96.70;;;;;;4963244;28;20043;-68
2023/06/09 01:03:00;;;;;;;5.00;2.47;;;21.60;96.70;;;;;;4975514;28;20075;-69
2023/06/09 01:05:29;;;;;;;4.20;2.50;;;21.50;96.70;;;;;;4963252;28;20057;-69
2023/06/09 01:08:04;;;;;;;4.00;3.00;;;21.60;96.70;;;;;;4978162;28;20053;-68
2023/06/09 01:10:40;;;;;;;2.72;2.25;;;21.70;96.70;;;;;;4959385;28;20505;-69
2023/06/09 01:13:21;;;;;;;2.58;2.25;;;21.80;96.70;;;;;;4978565;28;20046;-69
2023/06/09 01:15:56;;;;;;;2.92;2.67;;;21.80;96.70;;;;;;4960949;28;20412;-68
2023/06/09 01:18:30;;;;;;;4.72;2.47;;;21.70;96.70;;;;;;4980393;28;20088;-68
2023/06/09 01:21:12;;;;;;;3.50;2.90;;;21.70;96.70;;;;;;4981776;28;20050;-68
2023/06/09 01:23:53;;;;;;;5.95;2.78;;;21.30;96.70;;;;;;4982762;28;20571;-69
2023/06/09 01:26:23;;;;;;;4.05;2.90;;;21.20;96.70;;;;;;4984265;28;20109;-69
2023/06/09 01:28:53;;;;;;;3.05;2.78;;;21.30;96.70;;;;;;4984980;28;20042;-68
2023/06/09 01:31:23;;;;;;;5.63;3.35;;;21.20;96.70;;;;;;4968116;28;20753;-69
2023/06/09 01:33:52;;;;;;;4.60;2.88;;;21.20;96.70;;;;;;4961314;28;20089;-69
2023/06/09 01:36:20;;;;;;;4.85;3.03;;;21.10;96.70;;;;;;4985499;28;20083;-69
2023/06/09 01:38:48;;;;;;;7.35;3.00;;;21.10;96.70;;;;;;4985138;28;20046;-69
2023/06/09 01:41:16;;;;;;;3.15;2.85;;;21.10;96.70;;;;;;4985042;28;20042;-68
2023/06/09 01:43:46;;;;;;;5.68;2.88;;;21.10;96.70;;;;;;4985626;28;20074;-68
2023/06/09 01:46:14;;;;;;;3.40;2.90;;;21.00;96.70;;;;;;4984661;28;20053;-69
2023/06/09 01:48:50;;;;;;;4.63;2.97;;;21.00;96.70;;;;;;4985640;28;20054;-68
2023/06/09 01:51:24;;;;;;;5.28;3.28;;;21.00;96.70;;;;;;4986180;28;20100;-68
2023/06/09 01:53:59;;;;;;;5.38;3.15;;;21.00;96.70;;;;;;4985257;28;20607;-69
2023/06/09 01:56:34;;;;;;;4.43;3.33;;;21.00;96.70;;;;;;4985933;28;20049;-68
2023/06/09 01:59:08;;;;;;;3.22;2.95;;;21.10;96.70;;;;;;4971605;28;20042;-69
2023/06/09 02:01:38;;;;;;;4.30;2.60;;;21.10;96.70;;;;;;4989239;28;20736;-68
2023/06/09 02:04:10;;;;;;;4.68;3.10;;;21.10;96.70;;;;;;4985129;28;20050;-68
2023/06/09 02:06:39;;;;;;;3.97;2.63;;;21.10;96.70;;;;;;4983524;28;20042;-68
2023/06/09 02:09:09;;;;;;;3.13;2.35;;;21.20;96.70;;;;;;4967530;28;20039;-68
2023/06/09 02:11:37;;;;;;;4.38;3.15;;;21.10;96.70;;;;;;4984271;28;20421;-69
2023/06/09 02:14:06;;;;;;;3.85;2.72;;;21.20;96.70;;;;;;4983805;28;20480;-68
2023/06/09 02:16:34;;;;;;;4.28;2.70;;;21.10;96.70;;;;;;4983064;28;20140;-68
2023/06/09 02:19:03;;;;;;;5.38;3.00;;;21.20;96.70;;;;;;4982258;28;20492;-69
2023/06/09 02:21:31;;;;;;;7.15;3.03;;;21.10;96.70;;;;;;4982882;28;20058;-68
2023/06/09 02:23:59;;;;;;;6.57;3.08;;;21.10;96.70;;;;;;4982977;28;20455;-68
2023/06/09 02:26:27;;;;;;;5.00;2.95;;;21.10;96.70;;;;;;4984067;28;20049;-68
2023/06/09 02:28:55;;;;;;;5.55;2.95;;;21.20;96.70;;;;;;4983138;28;20035;-69
2023/06/09 02:31:27;;;;;;;4.43;2.78;;;21.10;96.70;;;;;;4982643;28;20496;-68
2023/06/09 02:33:55;;;;;;;3.58;2.60;;;21.10;96.70;;;;;;4975710;28;20059;-68
2023/06/09 02:36:23;;;;;;;3.75;2.58;;;21.10;96.70;;;;;;4983258;28;20053;-69
2023/06/09 02:38:52;;;;;;;2.47;2.28;;;21.00;96.70;;;;;;4967103;28;20093;-69
2023/06/09 02:41:20;;;;;;;2.95;2.30;;;20.90;96.70;;;;;;4981023;28;20399;-69
2023/06/09 02:43:51;;;;;;;4.43;2.38;;;21.00;96.70;;;;;;4982448;28;20085;-68
2023/06/09 02:46:22;;;;;;;2.95;2.60;;;20.90;96.70;;;;;;4981535;28;20059;-69
2023/06/09 02:48:52;;;;;;;2.70;2.50;;;21.00;96.70;;;;;;4983078;28;20121;-69
2023/06/09 02:51:20;;;;;;;3.03;1.95;;;21.00;96.70;;;;;;4984209;28;20057;-69
2023/06/09 02:53:49;;;;;;;3.88;2.33;;;21.00;96.70;;;;;;4984168;28;20046;-68
2023/06/09 02:56:18;;;;;;;2.63;2.03;;;20.90;96.70;;;;;;4980831;28;20141;-68
2023/06/09 02:58:51;;;;;;;3.67;2.20;;;20.90;96.70;;;;;;4959616;28;20042;-68
2023/06/09 03:01:20;;;;;;;3.78;2.50;;;20.80;96.70;;;;;;4983667;28;20053;-68
2023/06/09 03:03:51;;;;;;;3.22;2.28;;;20.80;96.70;;;;;;4984285;28;20395;-68
2023/06/09 03:06:20;;;;;;;3.47;2.53;;;20.80;96.70;;;;;;4984272;28;20039;-68
2023/06/09 03:08:48;;;;;;;6.88;2.55;;;20.80;96.70;;;;;;4983411;28;20038;-68
2023/06/09 03:11:16;;;;;;;3.22;2.25;;;20.80;96.70;;;;;;4983837;28;20050;-68
2023/06/09 03:13:45;;;;;;;2.75;2.38;;;20.80;96.70;;;;;;4983995;28;20452;-68
2023/06/09 03:16:13;;;;;;;2.28;2.08;;;20.70;96.70;;;;;;4979905;28;20082;-68
2023/06/09 03:18:41;;;;;;;3.08;2.10;;;20.70;96.70;;;;;;4980904;28;20050;-68
2023/06/09 03:21:13;;;;;;;2.88;2.30;;;20.70;96.70;;;;;;4982475;28;20053;-69
2023/06/09 03:23:42;;;;;;;2.22;1.75;;;20.70;96.70;;;;;;4982720;28;20058;-69
2023/06/09 03:26:10;;;;;;;6.68;2.20;;;20.60;96.70;;;;;;4983095;28;20138;-68
2023/06/09 03:28:39;;;;;;;2.63;2.25;;;20.50;96.70;;;;;;4984228;28;20046;-68
2023/06/09 03:31:07;;;;;;;2.55;1.98;;;20.50;96.70;;;;;;4983066;28;20057;-69
2023/06/09 03:33:35;;;;;;;3.13;2.47;;;20.50;96.70;;;;;;4983227;28;20050;-68
2023/06/09 03:36:04;;;;;;;2.90;2.00;;;20.50;96.70;;;;;;4981531;28;20645;-68
2023/06/09 03:38:34;;;;;;;3.65;2.08;;;20.40;96.70;;;;;;4990441;28;20073;-68
2023/06/09 03:41:03;;;;;;;2.90;2.28;;;20.40;96.70;;;;;;4983560;28;20058;-68
2023/06/09 03:43:31;;;;;;;3.72;2.47;;;20.30;96.70;;;;;;4983837;28;20049;-69
2023/06/09 03:45:59;;;;;;;6.03;2.85;;;20.30;96.70;;;;;;4979467;28;20070;-69
2023/06/09 03:48:30;;;;;;;4.97;2.28;;;20.30;96.70;;;;;;4980488;28;20046;-68
2023/06/09 03:50:59;;;;;;;3.22;2.25;;;20.30;96.70;;;;;;4981827;28;20042;-68
2023/06/09 03:53:27;;;;;;;3.03;2.50;;;20.40;96.70;;;;;;4982731;28;20123;-68
2023/06/09 03:55:58;;;;;;;3.58;2.25;;;20.30;96.70;;;;;;4982465;28;20058;-68
2023/06/09 03:58:27;;;;;;;4.22;2.63;;;20.40;96.70;;;;;;4979815;28;20082;-68
2023/06/09 04:00:56;;;;;;;2.72;2.22;;;20.30;96.70;;;;;;4978699;28;20105;-68
2023/06/09 04:03:38;;;;;;;2.40;2.20;;;20.10;96.70;;;;;;4981435;28;20908;-68
2023/06/09 04:06:06;;;;;;;3.95;2.10;;;20.30;96.70;;;;;;4983005;28;20050;-69
2023/06/09 04:08:35;;;;;;;4.15;2.35;;;20.40;96.70;;;;;;4982014;28;20492;-68
2023/06/09 04:11:05;;;;;;;2.33;2.03;;;20.40;96.70;;;;;;4983499;28;20069;-69
2023/06/09 04:13:33;;;;;;;3.90;2.40;;;20.30;96.70;;;;;;4982966;28;20056;-71
2023/06/09 04:16:02;;;;;;;2.72;2.22;;;20.40;96.70;;;;;;4980922;28;20042;-68
2023/06/09 04:18:31;;;;;;;3.53;2.40;;;20.50;96.70;;;;;;4980218;28;20548;-68
2023/06/09 04:21:08;;;;;;;4.13;2.47;;;20.50;96.70;;;;;;4965123;28;20038;-68
2023/06/09 04:23:38;;;;;;;4.35;2.53;;;20.30;96.70;;;;;;4978654;28;20051;-68
2023/06/09 04:26:13;;;;;;;4.90;2.20;;;20.20;96.70;;;;;;4980277;28;20519;-69
2023/06/09 04:28:45;;;;;;;3.13;2.53;;;20.10;96.70;;;;;;4981738;28;20057;-68
2023/06/09 04:31:14;;;;;;;3.10;2.58;;;20.10;96.70;;;;;;4982404;28;20077;-68
2023/06/09 04:33:42;;;;;;;3.30;2.40;;;20.20;96.70;;;;;;4982268;28;20066;-68
2023/06/09 04:36:11;;;;;;;3.80;2.10;;;20.30;96.70;;;;;;4981278;28;20149;-68
2023/06/09 04:38:41;;;;;;;3.00;2.20;;;20.40;96.70;;;;;;4982468;28;20104;-68
2023/06/09 04:41:13;;;;;;;3.80;2.72;;;20.30;96.70;;;;;;4978851;28;20050;-68
2023/06/09 04:43:44;;;;;;;6.13;2.65;;;20.40;96.70;;;;;;4978836;28;20047;-68
2023/06/09 04:46:13;;;;;;;4.07;2.10;;;20.30;96.70;;;;;;4977083;28;20093;-68
2023/06/09 04:48:44;;;;;;;3.60;2.58;;;20.20;96.70;;;;;;4980805;28;20046;-68
2023/06/09 04:51:16;;;;;;;4.40;2.83;;;20.30;96.70;;;;;;4981329;28;20103;-68
2023/06/09 04:53:50;;;;;;;7.47;3.03;;;20.50;96.70;;;;;;4982110;28;20579;-68
2023/06/09 04:56:20;;;;;;;5.80;2.78;;;20.50;96.70;;;;;;4983237;28;20862;-68
2023/06/09 04:58:48;;;;;;;5.43;2.78;;;20.40;96.70;;;;;;4980290;28;20062;-67
2023/06/09 05:01:17;;;;;;;4.47;2.63;;;20.50;96.70;;;;;;4981499;28;20042;-68
2023/06/09 05:03:46;;;;;;;3.78;2.75;;;20.60;96.70;;;;;;4982621;28;20497;-68
2023/06/09 05:06:15;;;;;;;8.77;3.55;;;20.60;96.70;;;;;;4981143;28;20051;-68
2023/06/09 05:08:44;;;;;;;5.20;4.38;;;20.70;96.70;;;;;;4964672;28;20050;-69
2023/06/09 05:11:14;;;;;;;11.25;6.57;;;20.60;96.70;;;;;;4982869;28;20544;-68
2023/06/09 05:13:44;;;;;;;8.75;5.68;;;20.60;96.70;;;;;;4980004;28;20633;-68
2023/06/09 05:16:12;;;;;;;6.93;5.55;;;20.60;96.70;;;;;;4981520;28;20608;-68
2023/06/09 05:18:42;;;;;;;8.63;5.68;;;20.60;96.70;;;;;;4982166;28;20054;-68
2023/06/09 05:21:12;;;;;;;18.35;10.25;;;20.60;96.70;;;;;;4981509;28;20042;-68
2023/06/09 05:23:40;;;;;;;27.23;16.52;;;20.70;96.70;;;;;;4981534;28;20058;-68
2023/06/09 05:26:08;;;;;;;28.23;18.73;;;20.70;96.70;;;;;;4980709;28;20153;-68
2023/06/09 05:28:36;;;;;;;23.77;15.55;;;20.70;96.70;;;;;;4981185;28;20054;-68
2023/06/09 05:31:06;;;;;;;20.83;13.52;;;20.70;96.70;;;;;;4981147;28;20034;-68
2023/06/09 05:33:36;;;;;;;17.52;11.38;;;20.70;96.70;;;;;;4981347;28;20447;-69
2023/06/09 05:36:09;;;;;;;18.00;12.18;;;20.80;96.70;;;;;;4982466;28;20062;-69
2023/06/09 05:38:42;;;;;;;19.13;13.60;;;20.90;96.70;;;;;;4971370;28;20137;-68
2023/06/09 05:41:11;;;;;;;18.85;13.38;;;21.00;96.70;;;;;;4979834;28;20054;-70
2023/06/09 05:43:39;;;;;;;20.65;12.57;;;21.10;96.70;;;;;;4968004;28;20050;-69
2023/06/09 05:46:09;;;;;;;14.65;10.98;;;21.10;96.70;;;;;;4981211;28;20125;-69
2023/06/09 05:48:37;;;;;;;14.20;9.52;;;21.10;96.70;;;;;;4981883;28;20576;-68
2023/06/09 05:51:06;;;;;;;10.07;8.00;;;21.00;96.70;;;;;;4979571;28;20050;-69
2023/06/09 05:53:34;;;;;;;11.65;9.10;;;21.10;96.70;;;;;;4980679;28;20070;-69
2023/06/09 05:56:02;;;;;;;12.77;8.88;;;21.10;96.70;;;;;;4980944;28;20086;-68
2023/06/09 05:58:33;;;;;;;13.02;9.68;;;21.10;96.70;;;;;;4981291;28;20042;-68
2023/06/09 06:01:03;;;;;;;11.75;7.90;;;21.10;96.70;;;;;;4982316;28;20230;-68
2023/06/09 06:03:33;;;;;;;13.55;8.32;;;21.30;96.70;;;;;;4979531;28;20560;-69
2023/06/09 06:06:01;;;;;;;10.68;7.90;;;21.40;96.70;;;;;;4982310;28;20488;-69
2023/06/09 06:08:29;;;;;;;12.88;8.45;;;21.40;96.70;;;;;;4981315;28;20124;-69
2023/06/09 06:10:58;;;;;;;9.45;7.22;;;21.40;96.70;;;;;;4982350;28;20038;-69
2023/06/09 06:13:26;;;;;;;8.88;6.03;;;21.40;96.70;;;;;;4985192;28;20113;-69
2023/06/09 06:15:54;;;;;;;6.63;5.55;;;21.40;96.70;;;;;;4987475;28;20047;-69
2023/06/09 06:18:22;;;;;;;5.13;4.63;;;21.50;96.70;;;;;;4984729;28;20057;-69
2023/06/09 06:20:52;;;;;;;5.93;5.05;;;21.60;96.70;;;;;;4967304;28;20488;-69
2023/06/09 06:23:20;;;;;;;6.22;4.53;;;21.60;96.70;;;;;;4985257;28;20058;-69
2023/06/09 06:25:48;;;;;;;5.03;4.53;;;21.50;96.70;;;;;;4984923;28;20050;-69
2023/06/09 06:28:17;;;;;;;5.25;4.75;;;21.60;96.70;;;;;;4985489;28;20523;-69
2023/06/09 06:30:45;;;;;;;6.85;3.90;;;21.60;96.70;;;;;;4984637;28;20061;-69
2023/06/09 06:33:15;;;;;;;4.28;3.42;;;21.60;96.70;;;;;;4967158;28;20043;-69
2023/06/09 06:35:43;;;;;;;6.03;4.00;;;21.80;96.70;;;;;;4983302;28;20593;-70
2023/06/09 06:38:13;;;;;;;4.95;4.35;;;22.00;96.70;;;;;;4984755;28;20054;-71
2023/06/09 06:40:45;;;;;;;5.82;4.75;;;22.10;96.70;;;;;;4984266;28;20508;-71
2023/06/09 06:43:13;;;;;;;6.82;4.22;;;22.10;96.70;;;;;;4984699;28;20054;-70
2023/06/09 06:45:56;;;;;;;5.85;4.00;;;22.20;96.70;;;;;;4982419;28;20046;-70
2023/06/09 06:48:26;;;;;;;6.20;3.97;;;22.30;96.70;;;;;;4984790;28;20105;-69
2023/06/09 06:50:54;;;;;;;8.32;4.30;;;22.40;96.70;;;;;;4983908;28;20500;-69
2023/06/09 06:53:25;;;;;;;5.78;4.40;;;22.60;96.70;;;;;;4966098;28;20675;-69
2023/06/09 06:55:53;;;;;;;4.50;4.05;;;22.70;96.70;;;;;;4982452;28;20155;-69
2023/06/09 06:58:21;;;;;;;9.07;4.13;;;22.80;96.70;;;;;;4983000;28;20057;-70
2023/06/09 07:00:50;;;;;;;4.82;4.32;;;23.00;96.70;;;;;;4984826;28;20141;-69
2023/06/09 07:03:20;;;;;;;4.53;3.63;;;23.20;96.70;;;;;;4983553;28;20042;-70
2023/06/09 07:05:48;;;;;;;4.38;3.97;;;23.20;96.70;;;;;;4985081;28;20465;-69
2023/06/09 07:08:18;;;;;;;6.45;4.55;;;23.30;96.70;;;;;;4983919;28;20469;-69
2023/06/09 07:10:47;;;;;;;4.53;4.00;;;23.50;96.70;;;;;;4984028;28;20039;-70
2023/06/09 07:13:16;;;;;;;3.88;3.25;;;23.60;96.70;;;;;;4984661;28;20129;-69
2023/06/09 07:15:44;;;;;;;5.57;4.43;;;23.70;96.70;;;;;;4982790;28;20085;-69
2023/06/09 07:18:12;;;;;;;5.60;3.55;;;23.80;96.70;;;;;;4979732;28;20073;-69
2023/06/09 07:20:41;;;;;;;4.50;3.47;;;23.80;96.70;;;;;;4965336;28;20047;-70
2023/06/09 07:23:09;;;;;;;5.57;3.78;;;23.80;96.70;;;;;;4962692;28;20039;-69
2023/06/09 07:25:38;;;;;;;3.58;3.10;;;23.70;96.70;;;;;;4964891;28;20053;-69
2023/06/09 07:28:08;;;;;;;5.35;3.95;;;23.80;96.70;;;;;;4979473;28;20047;-70
2023/06/09 07:30:36;;;;;;;4.70;3.30;;;23.80;96.70;;;;;;4964150;28;20497;-69
2023/06/09 07:33:05;;;;;;;5.53;3.78;;;23.80;96.70;;;;;;4980058;28;20103;-69
2023/06/09 07:35:33;;;;;;;4.85;3.42;;;23.80;96.70;;;;;;4966758;28;20630;-70
2023/06/09 07:38:01;;;;;;;4.97;3.25;;;23.90;96.70;;;;;;4978884;28;20053;-69
2023/06/09 07:40:29;;;;;;;3.95;3.33;;;23.90;96.70;;;;;;4963005;28;20059;-69
2023/06/09 07:42:58;;;;;;;4.22;3.58;;;23.90;96.70;;;;;;4976578;28;20134;-71
2023/06/09 07:45:30;;;;;;;4.75;3.70;;;23.90;96.70;;;;;;4975440;28;20133;-70
2023/06/09 07:47:58;;;;;;;3.90;3.38;;;24.00;96.70;;;;;;4964513;28;20058;-69
2023/06/09 07:50:26;;;;;;;4.65;3.80;;;24.20;96.70;;;;;;4961766;28;20050;-69
2023/06/09 07:52:54;;;;;;;4.80;3.92;;;24.20;96.70;;;;;;4963812;28;20632;-69
2023/06/09 07:55:22;;;;;;;4.25;3.85;;;24.30;96.70;;;;;;4964438;28;20501;-69
2023/06/09 07:57:51;;;;;;;5.38;3.90;;;24.40;96.70;;;;;;4963105;28;20074;-69
2023/06/09 08:00:20;;;;;;;3.88;3.47;;;24.40;96.70;;;;;;4963782;28;20059;-69
2023/06/09 08:02:50;;;;;;;4.78;3.53;;;24.60;96.70;;;;;;4962674;28;20709;-70
2023/06/09 08:05:26;;;;;;;4.43;3.65;;;24.70;96.70;;;;;;4978454;28;20519;-69
2023/06/09 08:07:54;;;;;;;4.00;3.38;;;24.70;96.70;;;;;;4964476;28;20047;-69
2023/06/09 08:10:22;;;;;;;5.32;3.85;;;24.80;96.70;;;;;;4966469;28;20134;-70
2023/06/09 08:12:51;;;;;;;4.90;3.88;;;24.80;96.70;;;;;;4963979;28;20042;-70
2023/06/09 08:15:19;;;;;;;4.57;4.15;;;24.70;96.70;;;;;;4962611;28;20532;-70
2023/06/09 08:17:49;;;;;;;5.03;3.65;;;24.90;96.70;;;;;;4975053;28;20141;-69
2023/06/09 08:20:18;;;;;;;5.07;4.28;;;25.00;96.70;;;;;;4978986;28;20054;-69
2023/06/09 08:22:46;;;;;;;6.65;4.50;;;25.00;96.70;;;;;;4977403;28;20049;-71
2023/06/09 08:25:14;;;;;;;4.80;4.25;;;24.90;96.70;;;;;;4983065;28;20069;-69
2023/06/09 08:27:42;;;;;;;7.05;5.03;;;24.90;96.70;;;;;;4982552;28;20193;-69
2023/06/09 08:30:11;;;;;;;5.05;4.22;;;24.90;96.70;;;;;;4982085;28;20050;-69
2023/06/09 08:32:40;;;;;;;6.35;4.60;;;24.90;96.70;;;;;;4982197;28;20129;-69
2023/06/09 08:35:10;;;;;;;6.60;4.93;;;24.90;96.70;;;;;;4981638;28;20440;-69
2023/06/09 08:37:40;;;;;;;5.55;4.18;;;25.00;96.70;;;;;;4981890;28;20046;-69
2023/06/09 08:40:11;;;;;;;6.38;4.57;;;25.00;96.70;;;;;;4982916;28;20061;-69
2023/06/09 08:42:40;;;;;;;6.95;4.20;;;25.00;96.70;;;;;;4982367;28;20053;-69
2023/06/09 08:45:10;;;;;;;5.63;4.20;;;25.10;96.70;;;;;;4982476;28;20065;-69
2023/06/09 08:47:47;;;;;;;4.10;3.67;;;25.00;96.70;;;;;;4965891;28;20054;-69
2023/06/09 08:50:20;;;;;;;4.85;4.38;;;25.10;96.70;;;;;;4979297;28;20495;-70
2023/06/09 08:52:49;;;;;;;6.03;4.35;;;25.00;96.70;;;;;;4980378;28;20073;-70
2023/06/09 08:55:17;;;;;;;5.35;3.95;;;24.90;96.70;;;;;;4982399;28;20035;-69
2023/06/09 08:57:46;;;;;;;5.28;4.00;;;24.80;96.70;;;;;;4982939;28;20054;-70
2023/06/09 09:00:16;;;;;;;5.90;4.53;;;24.80;96.70;;;;;;4982733;28;20047;-70
2023/06/09 09:02:46;;;;;;;6.93;4.30;;;24.80;96.70;;;;;;4978884;28;20460;-70
2023/06/09 09:05:14;;;;;;;5.18;4.10;;;24.90;96.70;;;;;;4981144;28;20108;-70
2023/06/09 09:07:45;;;;;;;6.25;3.95;;;25.10;96.70;;;;;;4978417;28;20152;-70
2023/06/09 09:10:14;;;;;;;5.55;3.97;;;25.30;96.70;;;;;;4982631;28;20145;-70
2023/06/09 09:12:46;;;;;;;6.00;4.03;;;25.30;96.70;;;;;;4983361;28;20238;-70
2023/06/09 09:15:14;;;;;;;4.85;4.20;;;25.40;96.70;;;;;;4978053;28;20051;-69
2023/06/09 09:17:46;;;;;;;10.48;5.20;;;25.50;96.70;;;;;;4980382;28;20058;-70
2023/06/09 09:20:15;;;;;;;5.10;4.05;;;25.70;96.70;;;;;;4981232;28;20547;-69
2023/06/09 09:22:46;;;;;;;7.57;4.90;;;25.80;96.70;;;;;;4982272;28;20675;-69
2023/06/09 09:25:22;;;;;;;5.72;4.70;;;25.90;96.70;;;;;;4965126;28;20050;-70
2023/06/09 09:28:02;;;;;;;5.05;4.15;;;25.90;96.70;;;;;;4982168;28;20073;-71
2023/06/09 09:30:47;;;;;;;6.95;4.13;;;26.10;96.70;;;;;;4974267;28;20050;-69
2023/06/09 09:33:18;;;;;;;6.30;4.40;;;26.20;96.70;;;;;;4982954;28;20048;-70
2023/06/09 09:35:48;;;;;;;7.43;3.92;;;26.10;96.70;;;;;;4983297;28;20105;-70
2023/06/09 09:38:20;;;;;;;6.43;4.43;;;26.30;96.70;;;;;;4982054;28;20057;-70
2023/06/09 09:40:50;;;;;;;6.60;3.75;;;26.40;96.70;;;;;;4975395;28;20061;-70
2023/06/09 09:43:19;;;;;;;6.88;4.25;;;26.30;96.70;;;;;;4982645;28;20062;-71
2023/06/09 09:45:50;;;;;;;6.55;4.30;;;26.20;96.70;;;;;;4982703;28;20049;-70
2023/06/09 09:48:21;;;;;;;5.75;3.95;;;26.30;96.70;;;;;;4985324;28;20055;-71
2023/06/09 09:50:51;;;;;;;5.25;3.35;;;26.30;96.70;;;;;;4967788;28;20078;-71
2023/06/09 09:53:27;;;;;;;5.55;3.92;;;26.20;96.70;;;;;;4984431;28;20467;-71
2023/06/09 09:55:59;;;;;;;6.25;3.60;;;26.30;96.70;;;;;;4986385;28;20279;-71
2023/06/09 09:58:29;;;;;;;4.30;3.10;;;26.30;96.70;;;;;;4986571;28;20054;-70
2023/06/09 10:01:03;;;;;;;7.50;4.18;;;26.50;96.70;;;;;;4981828;28;20078;-70
2023/06/09 10:03:32;;;;;;;7.55;4.18;;;26.50;96.70;;;;;;4985053;28;20313;-69
2023/06/09 10:06:03;;;;;;;7.82;3.95;;;26.50;96.70;;;;;;4968555;28;20456;-70
2023/06/09 10:08:33;;;;;;;4.53;3.55;;;26.50;96.70;;;;;;4988509;28;20132;-70
2023/06/09 10:11:02;;;;;;;7.25;3.97;;;26.40;96.70;;;;;;4984174;28;20062;-70
2023/06/09 10:13:30;;;;;;;6.60;3.30;;;26.50;96.70;;;;;;4985425;28;20096;-70
2023/06/09 10:15:59;;;;;;;4.63;3.05;;;26.50;96.70;;;;;;4984744;28;20138;-70
2023/06/09 10:18:27;;;;;;;6.80;2.97;;;26.50;96.70;;;;;;4981415;28;20062;-69
2023/06/09 10:20:55;;;;;;;3.63;2.30;;;26.70;96.70;;;;;;4966614;28;20050;-70
2023/06/09 10:23:23;;;;;;;5.10;2.40;;;26.90;96.70;;;;;;4965730;28;20062;-70
2023/06/09 10:25:53;;;;;;;5.90;2.90;;;26.90;96.70;;;;;;4965202;28;20058;-70
2023/06/09 10:28:21;;;;;;;4.50;2.97;;;26.90;96.70;;;;;;4963660;28;20426;-70
2023/06/09 10:30:52;;;;;;;4.45;3.08;;;27.10;96.70;;;;;;4964023;28;20154;-70
2023/06/09 10:33:25;;;;;;;5.85;2.80;;;27.30;96.70;;;;;;4966092;28;20134;-70
2023/06/09 10:35:58;;;;;;;3.60;3.00;;;27.50;96.70;;;;;;4964656;28;20105;-70
2023/06/09 10:38:30;;;;;;;5.28;2.78;;;27.60;96.70;;;;;;4964340;28;20047;-70
2023/06/09 10:41:10;;;;;;;3.78;2.50;;;27.70;96.70;;;;;;4980674;28;20110;-70
2023/06/09 10:44:17;;;;;;;4.57;2.72;;;28.00;96.70;;;;;;4964362;28;20051;-70
2023/06/09 10:46:46;;;;;;;;;;;27.90;96.70;;;;;;4963705;28;20063;-70
2023/06/09 10:49:40;;;;;;;2.65;1.98;;;27.90;96.70;;;;;;4980802;28;20347;-70
2023/06/09 10:52:30;;;;;;;4.10;2.22;;;28.00;96.70;;;;;;4978663;28;20047;-70
2023/06/09 10:55:15;;;;;;;5.18;2.15;;;28.20;96.70;;;;;;4968132;28;20097;-70
2023/06/09 10:57:45;;;;;;;3.22;2.45;;;28.10;96.70;;;;;;4979552;28;20078;-70
2023/06/09 11:00:16;;;;;;;3.60;2.45;;;28.10;96.70;;;;;;4965680;28;20046;-70
2023/06/09 11:02:51;;;;;;;6.80;2.58;;;28.30;96.70;;;;;;4965920;28;20571;-70
2023/06/09 11:05:20;;;;;;;4.28;2.13;;;28.40;96.70;;;;;;4980864;28;20051;-70
2023/06/09 11:07:50;;;;;;;5.88;2.60;;;28.50;96.70;;;;;;4964873;28;20054;-70
2023/06/09 11:10:28;;;;;;;6.72;2.53;;;28.60;96.70;;;;;;4965331;28;20078;-70
2023/06/09 11:12:57;;;;;;;3.65;2.40;;;28.50;96.70;;;;;;4965573;28;20078;-70
2023/06/09 11:15:57;;;;;;;5.05;2.70;;;28.50;96.70;;;;;;4965461;28;20050;-70
2023/06/09 11:18:25;;;;;;;4.13;2.30;;;28.20;96.70;;;;;;4968546;28;20128;-70
2023/06/09 11:21:18;;;;;;;4.18;2.33;;;28.20;96.70;;;;;;4984295;28;20038;-70
2023/06/09 11:23:57;;;;;;;2.47;2.10;;;28.30;96.70;;;;;;4983219;28;20049;-69
2023/06/09 11:26:26;;;;;;;3.97;2.22;;;28.40;96.70;;;;;;4983444;28;20046;-70
2023/06/09 11:28:55;;;;;;;3.90;2.33;;;28.60;96.70;;;;;;4984310;28;20042;-70
2023/06/09 11:31:23;;;;;;;4.65;2.25;;;28.50;96.70;;;;;;4989496;28;20377;-70
2023/06/09 11:33:56;;;;;;;4.32;2.58;;;28.50;96.70;;;;;;4985626;28;20390;-70
2023/06/09 11:36:27;;;;;;;4.85;2.08;;;28.60;96.70;;;;;;4981676;28;20174;-70
2023/06/09 11:39:03;;;;;;;4.80;2.75;;;28.60;96.70;;;;;;4984457;28;20500;-70
2023/06/09 11:41:31;;;;;;;;;;;28.90;96.70;;;;;;4984853;28;20152;-70
2023/06/09 11:44:01;;;;;;;3.88;2.15;;;29.20;96.70;;;;;;4983996;28;19933;-70
2023/06/09 11:46:34;;;;;;;3.50;2.05;;;29.40;96.70;;;;;;4979086;28;20068;-70
2023/06/09 11:49:09;;;;;;;4.13;2.08;;;29.40;96.70;;;;;;4986591;28;21166;-67
2023/06/09 11:52:00;;;;;;;5.18;2.30;;;29.50;96.70;;;;;;4966357;28;20543;-70
2023/06/09 11:54:45;;;;;;;3.42;2.00;;;29.40;96.70;;;;;;4983277;28;20042;-68
2023/06/09 11:57:15;;;;;;;4.43;2.13;;;29.20;96.70;;;;;;4985524;28;20065;-69
2023/06/09 11:59:46;;;;;;;3.35;2.45;;;29.10;96.70;;;;;;4985682;28;20050;-69
2023/06/09 12:02:16;;;;;;;4.57;2.10;;;29.00;96.70;;;;;;4983241;28;20150;-71
2023/06/09 12:04:45;;;;;;;3.83;1.98;;;29.00;96.70;;;;;;4983516;28;20046;-70
2023/06/09 12:07:15;;;;;;;5.25;2.17;;;29.10;96.70;;;;;;4983891;28;20046;-70
2023/06/09 12:09:45;;;;;;;2.90;2.00;;;29.50;96.70;;;;;;4964523;28;20073;-69
2023/06/09 12:12:12;;;;;;;3.95;2.08;;;29.80;96.70;;;;;;4981603;28;20050;-70
2023/06/09 12:14:40;;;;;;;4.50;1.90;;;30.20;96.70;;;;;;4982998;28;20077;-69
2023/06/09 12:17:10;;;;;;;4.43;2.20;;;30.30;96.70;;;;;;4981727;28;20058;-70
2023/06/09 12:19:38;;;;;;;3.63;2.38;;;30.40;96.70;;;;;;4983777;28;20855;-69
2023/06/09 12:22:06;;;;;;;5.13;2.33;;;30.40;96.70;;;;;;4981788;28;20129;-69
2023/06/09 12:24:34;;;;;;;4.93;2.38;;;30.30;96.70;;;;;;4974031;28;20110;-70
2023/06/09 12:27:12;;;;;;;4.40;2.30;;;30.30;96.70;;;;;;4980569;28;20050;-70
2023/06/09 12:29:40;;;;;;;3.30;2.42;;;30.30;96.70;;;;;;4982281;28;20050;-69
2023/06/09 12:32:22;;;;;;;4.35;2.22;;;30.30;96.70;;;;;;4983142;28;20053;-70
2023/06/09 12:34:59;;;;;;;4.25;2.13;;;30.30;96.70;;;;;;4983700;28;20101;-70
2023/06/09 12:37:30;;;;;;;3.00;1.75;;;30.00;96.70;;;;;;4978326;28;20086;-70
2023/06/09 12:40:04;;;;;;;4.65;1.80;;;29.80;96.70;;;;;;4980061;28;20069;-70
2023/06/09 12:42:46;;;;;;;2.22;1.77;;;29.80;96.70;;;;;;4982933;28;20042;-70
2023/06/09 12:45:15;;;;;;;3.10;2.10;;;29.70;96.70;;;;;;4982983;28;20039;-69
2023/06/09 12:47:48;;;;;;;2.55;1.92;;;29.70;96.70;;;;;;4982264;28;20034;-70
2023/06/09 12:50:16;;;;;;;3.95;2.22;;;29.80;96.70;;;;;;4982664;28;20116;-70
2023/06/09 12:53:14;;;;;;;4.93;2.20;;;30.00;96.70;;;;;;4981804;28;20049;-70
2023/06/09 12:55:43;;;;;;;4.85;2.08;;;30.20;96.70;;;;;;4964852;28;20524;-69
2023/06/09 12:58:13;;;;;;;3.75;1.88;;;30.50;96.70;;;;;;4981108;28;20050;-69
2023/06/09 13:00:41;;;;;;;3.83;1.70;;;30.60;96.70;;;;;;4982644;28;20050;-69
2023/06/09 13:03:11;;;;;;;5.55;2.00;;;30.70;96.70;;;;;;4982606;28;20052;-69